createdAt,value
2019-01-21T00:00:49.685Z,30.07
2019-01-21T00:03:17.785Z,29.43
2019-01-21T00:05:45.711Z,31.03
2019-01-21T00:08:13.630Z,29.90
2019-01-21T00:10:41.646Z,29.50
2019-01-21T00:13:09.498Z,28.40
2019-01-21T00:15:37.544Z,31.00
2019-01-21T00:18:05.584Z,29.00
2019-01-21T00:20:33.556Z,27.87
2019-01-21T00:23:02.484Z,27.43
2019-01-21T00:25:30.498Z,29.17
2019-01-21T00:27:58.533Z,28.80
2019-01-21T00:30:26.991Z,29.67
2019-01-21T00:32:55.235Z,29.63
2019-01-21T00:35:23.193Z,28.00
2019-01-21T00:37:51.147Z,29.83
2019-01-21T00:40:19.086Z,28.90
2019-01-21T00:42:47.237Z,29.50
2019-01-21T00:45:15.095Z,29.20
2019-01-21T00:47:42.980Z,28.60
2019-01-21T00:50:10.946Z,30.12
2019-01-21T00:52:38.859Z,29.37
2019-01-21T00:55:07.047Z,28.93
2019-01-21T00:57:35.050Z,29.27
2019-01-21T01:00:03.857Z,30.20
2019-01-21T01:02:32.108Z,29.47
2019-01-21T01:05:00.225Z,28.37
2019-01-21T01:07:28.161Z,29.80
2019-01-21T01:09:56.057Z,28.40
2019-01-21T01:12:23.988Z,27.80
2019-01-21T01:14:51.981Z,29.13
2019-01-21T01:17:20.022Z,27.47
2019-01-21T01:19:47.868Z,28.13
2019-01-21T01:22:15.870Z,27.62
2019-01-21T01:24:43.874Z,27.93
2019-01-21T01:27:11.845Z,29.30
2019-01-21T01:29:39.812Z,28.07
2019-01-21T01:32:07.879Z,27.62
2019-01-21T01:34:35.740Z,27.90
2019-01-21T01:37:03.616Z,27.97
2019-01-21T01:39:31.556Z,29.77
2019-01-21T01:41:59.421Z,27.03
2019-01-21T01:44:27.578Z,26.70
2019-01-21T01:46:55.537Z,27.90
2019-01-21T01:49:23.581Z,28.33
2019-01-21T01:51:51.594Z,27.90
2019-01-21T01:54:19.472Z,27.35
2019-01-21T01:56:47.360Z,28.40
2019-01-21T01:59:15.480Z,27.25
2019-01-21T02:01:43.498Z,27.87
2019-01-21T02:04:11.357Z,28.87
2019-01-21T02:06:39.274Z,27.80
2019-01-21T02:09:08.186Z,27.93
2019-01-21T02:11:36.890Z,26.70
2019-01-21T02:14:05.288Z,28.40
2019-01-21T02:16:33.127Z,28.40
2019-01-21T02:19:01.037Z,25.65
2019-01-21T02:21:29.767Z,27.58
2019-01-21T02:24:02.534Z,29.07
2019-01-21T02:26:30.353Z,26.90
2019-01-21T02:29:26.231Z,28.80
2019-01-21T02:32:15.942Z,27.90
2019-01-21T02:34:55.774Z,27.62
2019-01-21T02:37:29.620Z,28.80
2019-01-21T02:40:16.858Z,28.40
2019-01-21T02:42:57.661Z,27.27
2019-01-21T02:45:32.996Z,28.50
2019-01-21T02:48:26.092Z,26.23
2019-01-21T02:51:18.855Z,25.55
2019-01-21T02:53:57.054Z,27.15
2019-01-21T02:56:42.811Z,28.20
2019-01-21T02:59:39.445Z,26.82
2019-01-21T03:02:35.367Z,28.35
2019-01-21T03:05:20.896Z,25.12
2019-01-21T03:08:11.066Z,27.60
2019-01-21T03:11:03.914Z,27.67
2019-01-21T03:13:53.723Z,27.75
2019-01-21T03:16:29.086Z,27.53
2019-01-21T03:19:14.817Z,28.07
2019-01-21T03:22:10.739Z,27.20
2019-01-21T03:24:57.733Z,26.62
2019-01-21T03:27:53.690Z,26.73
2019-01-21T03:30:40.726Z,25.65
2019-01-21T03:33:43.384Z,28.57
2019-01-21T03:36:33.402Z,27.73
2019-01-21T03:39:20.391Z,27.67
2019-01-21T03:41:55.304Z,26.27
2019-01-21T03:44:57.107Z,27.70
2019-01-21T03:47:40.074Z,27.75
2019-01-21T03:50:27.107Z,28.75
2019-01-21T03:52:59.591Z,27.13
2019-01-21T03:55:27.710Z,25.52
2019-01-21T03:58:29.705Z,27.20
2019-01-21T04:01:06.563Z,26.40
2019-01-21T04:03:43.785Z,26.90
2019-01-21T04:06:29.447Z,27.60
2019-01-21T04:09:19.225Z,26.55
2019-01-21T04:11:54.783Z,26.23
2019-01-21T04:14:28.018Z,26.42
2019-01-21T04:17:14.631Z,27.60
2019-01-21T04:19:46.703Z,27.48
2019-01-21T04:22:32.400Z,26.25
2019-01-21T04:25:18.141Z,24.72
2019-01-21T04:28:17.193Z,27.27
2019-01-21T04:30:59.775Z,25.52
2019-01-21T04:34:01.880Z,26.02
2019-01-21T04:36:35.969Z,24.67
2019-01-21T04:39:17.447Z,26.05
2019-01-21T04:42:06.856Z,25.50
2019-01-21T04:44:54.263Z,25.82
2019-01-21T04:47:47.085Z,27.42
2019-01-21T04:50:27.050Z,29.63
2019-01-21T04:53:29.205Z,26.85
2019-01-21T04:56:19.395Z,25.10
2019-01-21T04:59:01.890Z,26.20
2019-01-21T05:01:49.293Z,26.77
2019-01-21T05:04:35.084Z,24.80
2019-01-21T05:07:25.134Z,25.45
2019-01-21T05:10:12.292Z,26.35
2019-01-21T05:12:55.051Z,24.10
2019-01-21T05:15:43.347Z,24.12
2019-01-21T05:18:26.611Z,27.10
2019-01-21T05:21:19.980Z,26.90
2019-01-21T05:24:15.800Z,25.15
2019-01-21T05:26:57.197Z,24.72
2019-01-21T05:29:33.511Z,25.50
2019-01-21T05:32:06.875Z,24.75
2019-01-21T05:34:45.106Z,25.75
2019-01-21T05:37:32.211Z,24.05
2019-01-21T05:40:04.722Z,25.23
2019-01-21T05:42:54.735Z,25.15
2019-01-21T05:45:46.260Z,24.30
2019-01-21T05:48:48.841Z,24.65
2019-01-21T05:51:37.169Z,23.70
2019-01-21T05:54:22.791Z,25.72
2019-01-21T05:57:08.195Z,27.10
2019-01-21T05:59:51.898Z,26.05
2019-01-21T06:02:41.942Z,24.35
2019-01-21T06:05:23.283Z,22.87
2019-01-21T06:08:09.534Z,24.45
2019-01-21T06:10:59.627Z,26.97
2019-01-21T06:13:42.478Z,24.75
2019-01-21T06:16:41.734Z,24.00
2019-01-21T06:19:26.585Z,25.88
2019-01-21T06:22:12.116Z,24.95
2019-01-21T06:24:52.282Z,24.77
2019-01-21T06:27:48.277Z,26.97
2019-01-21T06:30:21.162Z,24.75
2019-01-21T06:33:17.097Z,24.92
2019-01-21T06:35:55.151Z,25.43
2019-01-21T06:38:30.706Z,27.37
2019-01-21T06:41:13.285Z,27.45
2019-01-21T06:44:09.706Z,27.50
2019-01-21T06:46:59.711Z,26.20
2019-01-21T06:49:45.372Z,26.30
2019-01-21T06:52:50.361Z,28.60
2019-01-21T06:55:40.097Z,27.58
2019-01-21T06:58:30.376Z,25.27
2019-01-21T07:01:18.740Z,25.48
2019-01-21T07:04:08.873Z,25.23
2019-01-21T07:06:45.578Z,26.17
2019-01-21T07:09:24.085Z,28.45
2019-01-21T07:12:13.861Z,28.10
2019-01-21T07:15:13.025Z,26.40
2019-01-21T07:18:12.115Z,25.90
2019-01-21T07:20:50.586Z,25.40
2019-01-21T07:23:44.093Z,27.17
2019-01-21T07:26:29.777Z,27.35
2019-01-21T07:29:19.532Z,26.57
2019-01-21T07:32:00.607Z,27.48
2019-01-21T07:34:36.590Z,25.35
2019-01-21T07:37:23.195Z,28.10
2019-01-21T07:40:08.756Z,25.60
2019-01-21T07:42:44.426Z,27.15
2019-01-21T07:45:31.408Z,29.15
2019-01-21T07:48:17.059Z,26.02
2019-01-21T07:51:03.254Z,25.85
2019-01-21T09:53:01.482Z,23.17
2019-01-21T09:55:29.591Z,22.70
2019-01-21T09:58:05.217Z,21.37
2019-01-21T10:00:33.214Z,23.47
2019-01-21T10:03:01.961Z,22.97
2019-01-21T10:05:31.469Z,21.57
2019-01-21T10:08:18.446Z,22.10
2019-01-21T10:11:03.185Z,23.17
2019-01-21T10:13:55.427Z,23.07
2019-01-21T10:16:36.810Z,21.87
2019-01-21T10:19:22.154Z,22.63
2019-01-21T10:22:09.158Z,23.30
2019-01-21T10:24:51.178Z,21.87
2019-01-21T10:27:33.978Z,22.30
2019-01-21T10:30:06.446Z,21.20
2019-01-21T10:32:53.504Z,23.63
2019-01-21T10:35:28.847Z,21.60
2019-01-21T10:38:05.282Z,21.70
2019-01-21T10:40:52.345Z,22.43
2019-01-21T10:43:30.526Z,23.30
2019-01-21T10:46:21.099Z,22.37
2019-01-21T10:48:56.368Z,22.93
2019-01-21T10:51:28.734Z,22.13
2019-01-21T10:54:21.724Z,22.50
2019-01-21T10:56:59.378Z,22.77
2019-01-21T10:59:48.872Z,22.73
2019-01-21T11:02:34.348Z,22.50
2019-01-21T11:05:15.108Z,22.43
2019-01-21T11:07:49.159Z,22.50
2019-01-21T11:10:23.566Z,22.60
2019-01-21T11:12:55.198Z,22.03
2019-01-21T11:15:25.324Z,22.37
2019-01-21T11:18:15.099Z,22.47
2019-01-21T11:21:05.159Z,22.67
2019-01-21T11:23:50.796Z,22.90
2019-01-21T11:26:39.768Z,23.60
2019-01-21T11:29:14.331Z,22.50
2019-01-21T11:32:04.298Z,22.73
2019-01-21T11:34:43.880Z,22.27
2019-01-21T11:37:29.230Z,22.73
2019-01-21T11:40:14.641Z,22.37
2019-01-21T11:43:07.707Z,23.90
2019-01-21T11:45:54.774Z,23.00
2019-01-21T11:48:43.258Z,23.20
2019-01-21T11:51:28.004Z,22.80
2019-01-21T11:54:13.913Z,21.93
2019-01-21T11:57:18.889Z,22.97
2019-01-21T12:00:11.727Z,23.80
2019-01-21T12:03:01.486Z,22.47
2019-01-21T12:05:51.199Z,21.93
2019-01-21T12:08:36.568Z,23.63
2019-01-21T12:11:18.946Z,23.33
2019-01-21T12:14:05.972Z,22.17
2019-01-21T12:16:40.424Z,22.33
2019-01-21T12:19:15.119Z,23.20
2019-01-21T12:21:55.353Z,21.47
2019-01-21T12:24:28.038Z,22.97
2019-01-21T12:27:20.935Z,22.73
2019-01-21T12:30:07.928Z,23.03
2019-01-21T12:33:00.908Z,23.50
2019-01-21T14:21:29.411Z,21.10
2019-01-21T14:24:11.278Z,22.90
2019-01-21T14:26:58.712Z,22.37
2019-01-21T14:29:40.919Z,21.60
2019-01-21T14:32:22.756Z,23.67
2019-01-21T14:35:19.240Z,21.63
2019-01-21T14:38:04.783Z,21.30
2019-01-21T14:40:46.054Z,22.60
2019-01-21T14:43:19.574Z,23.00
2019-01-21T14:46:11.009Z,22.40
2019-01-21T14:48:52.093Z,24.63
2019-01-21T14:51:42.087Z,24.50
2019-01-21T16:44:03.800Z,24.03
2019-01-21T16:46:32.008Z,23.73
2019-01-21T16:49:00.405Z,25.00
2019-01-21T16:51:28.599Z,23.80
2019-01-21T16:53:57.178Z,23.53
2019-01-21T16:56:25.366Z,23.60
2019-01-21T16:58:53.474Z,24.80
2019-01-21T17:01:21.518Z,23.60
2019-01-21T17:03:49.725Z,25.47
2019-01-21T17:06:17.978Z,25.67
2019-01-21T17:08:46.090Z,25.00
2019-01-21T17:11:14.046Z,25.90
2019-01-21T17:13:42.089Z,25.83
2019-01-21T17:16:10.483Z,24.13
2019-01-21T17:18:38.837Z,25.20
2019-01-21T17:21:07.387Z,26.20
2019-01-21T17:23:38.528Z,26.83
2019-01-21T17:26:11.519Z,27.60
2019-01-21T17:28:39.880Z,26.53
2019-01-21T17:31:11.319Z,24.70
2019-01-21T17:33:39.744Z,27.27
2019-01-21T17:36:13.329Z,26.77
2019-01-21T17:38:41.583Z,25.90
2019-01-21T17:41:12.009Z,27.43
2019-01-21T17:43:40.369Z,25.93
2019-01-21T17:46:08.394Z,26.70
2019-01-21T17:48:36.515Z,25.50
2019-01-21T17:51:07.570Z,27.30
2019-01-21T17:53:35.760Z,27.30
2019-01-21T17:56:04.260Z,28.27
2019-01-21T17:58:32.648Z,26.27
2019-01-21T18:01:00.703Z,25.90
2019-01-21T18:03:28.843Z,27.93
2019-01-21T18:05:57.377Z,26.03
2019-01-21T18:08:30.027Z,28.40
2019-01-21T18:10:58.428Z,28.40
2019-01-21T18:13:26.374Z,28.63
2019-01-21T18:15:54.287Z,26.17
2019-01-21T18:18:22.179Z,29.13
2019-01-21T18:20:54.318Z,27.93
2019-01-21T18:23:22.255Z,27.87
2019-01-21T18:25:50.169Z,27.40
2019-01-21T18:28:18.023Z,29.27
2019-01-21T18:30:46.085Z,27.80
2019-01-21T18:33:14.303Z,27.33
2019-01-21T18:35:42.200Z,24.53
2019-01-21T18:38:10.172Z,27.03
2019-01-21T18:40:38.128Z,26.37
2019-01-21T18:43:06.017Z,24.97
2019-01-21T18:45:34.016Z,27.97
2019-01-21T18:48:01.890Z,26.47
2019-01-21T18:50:29.764Z,26.33
2019-01-21T18:52:57.643Z,26.90
2019-01-21T18:55:25.783Z,26.77
2019-01-21T18:57:55.941Z,28.57
2019-01-21T19:00:24.034Z,25.70
2019-01-21T19:02:51.965Z,27.20
2019-01-21T19:05:19.968Z,27.87
2019-01-21T19:07:47.857Z,29.50
2019-01-21T19:10:15.900Z,29.43
2019-01-21T19:12:43.862Z,30.50
2019-01-21T19:15:16.599Z,30.97
2019-01-21T19:17:44.748Z,30.50
2019-01-21T19:20:13.522Z,30.27
2019-01-21T19:22:41.752Z,30.53
2019-01-21T19:25:10.012Z,29.77
2019-01-21T19:27:38.284Z,31.87
2019-01-21T19:30:07.404Z,30.37
2019-01-21T19:32:35.987Z,29.20
2019-01-21T19:35:04.981Z,31.57
2019-01-21T19:37:33.430Z,29.23
2019-01-21T19:40:01.643Z,29.10
2019-01-21T19:42:29.906Z,28.10
2019-01-21T19:44:58.022Z,29.27
2019-01-21T19:47:26.193Z,32.20
2019-01-21T19:49:54.484Z,29.67
2019-01-21T19:52:22.465Z,31.00
2019-01-21T19:54:50.397Z,31.47
2019-01-21T19:57:18.371Z,30.73
2019-01-21T19:59:46.226Z,31.20
2019-01-21T20:02:14.255Z,30.77
2019-01-21T20:17:08.297Z,32.17
2019-01-21T20:19:36.487Z,33.73
2019-01-21T20:22:07.995Z,31.17
2019-01-21T20:45:19.140Z,34.00
2019-01-21T21:00:38.780Z,31.60
2019-01-21T21:03:07.108Z,29.90
2019-01-21T21:51:05.472Z,29.77
2019-01-21T22:02:44.755Z,30.35
2019-01-21T22:05:12.949Z,31.00
2019-01-21T22:11:55.334Z,31.30
2019-01-21T22:15:00.705Z,32.63
